Time,TemperatureF,DewpointF,PressureIn,WindDirection,WindDirectionDegrees,WindSpeedMPH,WindSpeedGustMPH,Humidity,HourlyPrecipIn,Conditions,Clouds,dailyrainin,SoftwareType,DateUTC
2013-04-16 00:00:00,46.9,45.5,29.92,WNW,296,4.0,6.0,95,0.09,,---,0.00,VWS V14.01,2013-04-16 04:00:00,
2013-04-16 00:05:00,46.9,45.5,29.92,WNW,294,4.0,5.0,95,0.06,,---,0.00,VWS V14.01,2013-04-16 04:05:00,
2013-04-16 00:10:00,46.9,45.5,29.92,WNW,294,5.0,6.0,95,0.04,,---,0.00,VWS V14.01,2013-04-16 04:10:00,
2013-04-16 00:15:00,46.9,45.8,29.92,WNW,294,3.0,3.0,96,0.03,,---,0.00,VWS V14.01,2013-04-16 04:15:00,
2013-04-16 00:20:00,46.9,45.8,29.92,WNW,294,3.0,3.0,96,0.01,,---,0.00,VWS V14.01,2013-04-16 04:20:00,
2013-04-16 00:25:00,46.9,45.8,29.92,WNW,294,3.0,4.0,96,0.00,,---,0.00,VWS V14.01,2013-04-16 04:25:00,
2013-04-16 00:30:00,46.9,45.8,29.92,WNW,294,2.0,3.0,96,0.01,,---,0.01,VWS V14.01,2013-04-16 04:30:00,
2013-04-16 00:35:00,46.9,45.8,29.91,WNW,294,0.0,0.0,96,0.01,,---,0.01,VWS V14.01,2013-04-16 04:35:00,
2013-04-16 00:40:00,46.9,45.8,29.92,WNW,294,4.0,5.0,96,0.01,,---,0.01,VWS V14.01,2013-04-16 04:40:00,
2013-04-16 00:45:00,46.8,45.7,29.92,WNW,294,3.0,4.0,96,0.02,,---,0.02,VWS V14.01,2013-04-16 04:45:00,
2013-04-16 00:50:00,46.8,45.7,29.92,WNW,294,5.0,6.0,96,0.02,,---,0.02,VWS V14.01,2013-04-16 04:50:00,
2013-04-16 00:55:00,46.8,45.7,29.92,WNW,294,4.0,5.0,96,0.02,,---,0.02,VWS V14.01,2013-04-16 04:55:00,
2013-04-16 01:01:00,46.7,45.6,29.93,WNW,294,5.0,7.0,96,0.02,,---,0.02,VWS V14.01,2013-04-16 05:01:00,
2013-04-16 01:06:00,46.7,45.6,29.93,WNW,294,5.0,6.0,96,0.03,,---,0.03,VWS V14.01,2013-04-16 05:06:00,
2013-04-16 01:11:00,46.6,45.5,29.93,WNW,294,4.0,5.0,96,0.03,,---,0.03,VWS V14.01,2013-04-16 05:11:00,
2013-04-16 01:16:00,46.6,45.5,29.92,WNW,294,3.0,5.0,96,0.03,,---,0.03,VWS V14.01,2013-04-16 05:16:00,
2013-04-16 01:21:00,46.5,45.4,29.93,WNW,294,3.0,3.0,96,0.03,,---,0.03,VWS V14.01,2013-04-16 05:21:00,
2013-04-16 01:26:00,46.5,45.4,29.94,WNW,294,3.0,6.0,96,0.03,,---,0.03,VWS V14.01,2013-04-16 05:26:00,
2013-04-16 01:31:00,46.5,45.4,29.94,WNW,294,5.0,6.0,96,0.02,,---,0.03,VWS V14.01,2013-04-16 05:31:00,
2013-04-16 01:36:00,46.5,45.4,29.93,WNW,294,5.0,5.0,96,0.02,,---,0.03,VWS V14.01,2013-04-16 05:36:00,
2013-04-16 01:41:00,46.4,45.3,29.94,WNW,284,5.0,8.0,96,0.03,,---,0.04,VWS V14.01,2013-04-16 05:41:00,
2013-04-16 01:46:00,46.4,45.3,29.93,WNW,290,3.0,6.0,96,0.03,,---,0.04,VWS V14.01,2013-04-16 05:46:00,
2013-04-16 01:52:00,46.3,45.2,29.94,West,277,5.0,6.0,96,0.02,,---,0.04,VWS V14.01,2013-04-16 05:52:00,
2013-04-16 01:56:00,46.3,45.2,29.92,West,277,4.0,5.0,96,0.03,,---,0.05,VWS V14.01,2013-04-16 05:56:00,
2013-04-16 02:01:00,46.3,45.2,29.94,West,277,5.0,6.0,96,0.04,,---,0.06,VWS V14.01,2013-04-16 06:01:00,
2013-04-16 02:06:00,46.3,45.2,29.93,WNW,290,5.0,6.0,96,0.03,,---,0.06,VWS V14.01,2013-04-16 06:06:00,
2013-04-16 02:11:00,46.4,45.3,29.94,WNW,284,6.0,7.0,96,0.03,,---,0.06,VWS V14.01,2013-04-16 06:11:00,
2013-04-16 02:17:00,46.4,45.3,29.94,West,266,5.0,9.0,96,0.03,,---,0.06,VWS V14.01,2013-04-16 06:17:00,
2013-04-16 02:22:00,46.4,45.3,29.93,West,271,6.0,8.0,96,0.04,,---,0.07,VWS V14.01,2013-04-16 06:22:00,
2013-04-16 02:26:00,46.4,45.3,29.94,West,263,7.0,8.0,96,0.05,,---,0.08,VWS V14.01,2013-04-16 06:26:00,
2013-04-16 02:32:00,46.4,45.3,29.94,West,264,8.0,9.0,96,0.06,,---,0.09,VWS V14.01,2013-04-16 06:32:00,
2013-04-16 02:36:00,46.3,45.2,29.93,West,271,9.0,11.0,96,0.06,,---,0.09,VWS V14.01,2013-04-16 06:36:00,
2013-04-16 02:41:00,46.1,45.0,29.93,WNW,282,9.0,9.0,96,0.06,,---,0.09,VWS V14.01,2013-04-16 06:41:00,
2013-04-16 02:46:00,46.1,45.0,29.94,West,276,8.0,9.0,96,0.05,,---,0.09,VWS V14.01,2013-04-16 06:46:00,
2013-04-16 02:51:00,46.1,45.0,29.94,West,265,8.0,8.0,96,0.05,,---,0.09,VWS V14.01,2013-04-16 06:51:00,
2013-04-16 02:56:00,46.1,45.0,29.94,West,265,6.0,8.0,96,0.05,,---,0.09,VWS V14.01,2013-04-16 06:56:00,
2013-04-16 03:01:00,46.0,44.9,29.93,WNW,300,7.0,9.0,96,0.04,,---,0.09,VWS V14.01,2013-04-16 07:01:00,
2013-04-16 03:06:00,45.8,44.7,29.93,West,275,7.0,8.0,96,0.03,,---,0.09,VWS V14.01,2013-04-16 07:06:00,
2013-04-16 03:11:00,45.7,44.6,29.93,West,279,5.0,8.0,96,0.03,,---,0.09,VWS V14.01,2013-04-16 07:11:00,
2013-04-16 03:17:00,45.7,44.6,29.94,West,281,6.0,9.0,96,0.03,,---,0.09,VWS V14.01,2013-04-16 07:17:00,
2013-04-16 03:22:00,45.6,44.5,29.94,WNW,284,4.0,7.0,96,0.03,,---,0.09,VWS V14.01,2013-04-16 07:22:00,
2013-04-16 03:27:00,45.5,44.4,29.93,WNW,284,4.0,5.0,96,0.02,,---,0.09,VWS V14.01,2013-04-16 07:27:00,
2013-04-16 03:32:00,45.5,44.4,29.93,WNW,285,7.0,7.0,96,0.01,,---,0.09,VWS V14.01,2013-04-16 07:32:00,
2013-04-16 03:37:00,45.5,44.4,29.93,WNW,296,6.0,9.0,96,0.00,,---,0.09,VWS V14.01,2013-04-16 07:37:00,
2013-04-16 03:42:00,45.4,44.3,29.94,WNW,284,4.0,9.0,96,0.00,,---,0.09,VWS V14.01,2013-04-16 07:42:00,
2013-04-16 03:47:00,45.3,44.0,29.93,WNW,282,6.0,9.0,95,0.00,,---,0.09,VWS V14.01,2013-04-16 07:47:00,
2013-04-16 03:52:00,45.2,43.9,29.92,West,281,5.0,7.0,95,0.00,,---,0.09,VWS V14.01,2013-04-16 07:52:00,
2013-04-16 03:57:00,45.0,43.7,29.93,West,263,8.0,8.0,95,0.00,,---,0.09,VWS V14.01,2013-04-16 07:57:00,
2013-04-16 04:02:00,44.8,43.5,29.93,West,269,6.0,9.0,95,0.00,,---,0.09,VWS V14.01,2013-04-16 08:02:00,
2013-04-16 04:07:00,44.7,43.4,29.92,West,276,6.0,9.0,95,0.00,,---,0.09,VWS V14.01,2013-04-16 08:07:00,
2013-04-16 04:12:00,44.4,43.1,29.93,WNW,283,9.0,9.0,95,0.00,,---,0.09,VWS V14.01,2013-04-16 08:12:00,
2013-04-16 04:17:00,44.3,43.0,29.93,West,277,7.0,11.0,95,0.00,,---,0.09,VWS V14.01,2013-04-16 08:17:00,
2013-04-16 04:22:00,44.1,42.8,29.93,WNW,292,7.0,10.0,95,0.00,,---,0.09,VWS V14.01,2013-04-16 08:22:00,
2013-04-16 04:27:00,43.9,42.6,29.93,WNW,294,6.0,9.0,95,0.00,,---,0.09,VWS V14.01,2013-04-16 08:27:00,
2013-04-16 04:32:00,43.8,42.2,29.94,West,277,8.0,11.0,94,0.00,,---,0.09,VWS V14.01,2013-04-16 08:32:00,
2013-04-16 04:37:00,43.7,42.1,29.94,West,275,6.0,7.0,94,0.00,,---,0.09,VWS V14.01,2013-04-16 08:37:00,
2013-04-16 04:42:00,43.7,42.4,29.95,West,275,6.0,9.0,95,0.00,,---,0.09,VWS V14.01,2013-04-16 08:42:00,
2013-04-16 04:47:00,43.5,41.9,29.96,West,281,8.0,11.0,94,0.00,,---,0.09,VWS V14.01,2013-04-16 08:47:00,
2013-04-16 04:52:00,43.3,41.7,29.97,West,274,8.0,12.0,94,0.01,,---,0.10,VWS V14.01,2013-04-16 08:52:00,
2013-04-16 04:57:00,43.2,41.6,29.97,WNW,288,10.0,12.0,94,0.01,,---,0.10,VWS V14.01,2013-04-16 08:57:00,
2013-04-16 05:02:00,43.0,41.4,29.97,WNW,293,11.0,11.0,94,0.01,,---,0.10,VWS V14.01,2013-04-16 09:02:00,
2013-04-16 05:07:00,42.8,41.2,29.97,WNW,282,6.0,10.0,94,0.01,,---,0.10,VWS V14.01,2013-04-16 09:07:00,
2013-04-16 05:12:00,42.7,41.1,29.97,West,280,7.0,8.0,94,0.01,,---,0.10,VWS V14.01,2013-04-16 09:12:00,
2013-04-16 05:17:00,42.7,41.1,29.98,WNW,287,4.0,9.0,94,0.01,,---,0.10,VWS V14.01,2013-04-16 09:17:00,
2013-04-16 05:22:00,42.7,41.1,29.98,WNW,286,5.0,7.0,94,0.01,,---,0.10,VWS V14.01,2013-04-16 09:22:00,
2013-04-16 05:27:00,42.6,41.0,29.98,WNW,285,6.0,7.0,94,0.01,,---,0.10,VWS V14.01,2013-04-16 09:27:00,
2013-04-16 05:32:00,42.5,40.9,29.98,WNW,302,4.0,6.0,94,0.01,,---,0.10,VWS V14.01,2013-04-16 09:32:00,
2013-04-16 05:37:00,42.4,40.8,29.98,WNW,292,5.0,8.0,94,0.01,,---,0.10,VWS V14.01,2013-04-16 09:37:00,
2013-04-16 05:42:00,42.5,40.9,29.98,WNW,293,4.0,7.0,94,0.01,,---,0.10,VWS V14.01,2013-04-16 09:42:00,
2013-04-16 05:47:00,42.5,40.9,29.98,WNW,290,7.0,9.0,94,0.01,,---,0.10,VWS V14.01,2013-04-16 09:47:00,
2013-04-16 05:52:00,42.5,40.9,29.98,West,272,8.0,8.0,94,0.00,,---,0.10,VWS V14.01,2013-04-16 09:52:00,
2013-04-16 05:57:00,42.4,40.8,29.98,WNW,286,7.0,8.0,94,0.00,,---,0.10,VWS V14.01,2013-04-16 09:57:00,
2013-04-16 06:02:00,42.4,40.8,29.98,West,277,8.0,9.0,94,0.00,,---,0.10,VWS V14.01,2013-04-16 10:02:00,
2013-04-16 06:07:00,42.4,40.8,29.99,West,277,9.0,11.0,94,0.00,,---,0.10,VWS V14.01,2013-04-16 10:07:00,
2013-04-16 06:12:00,42.4,40.8,29.99,WNW,302,6.0,10.0,94,0.00,,---,0.10,VWS V14.01,2013-04-16 10:12:00,
2013-04-16 06:17:00,42.4,40.8,29.99,WNW,292,5.0,7.0,94,0.00,,---,0.10,VWS V14.01,2013-04-16 10:17:00,
2013-04-16 06:22:00,42.4,40.8,29.99,WNW,296,8.0,9.0,94,0.00,,---,0.10,VWS V14.01,2013-04-16 10:22:00,
2013-04-16 06:27:00,42.4,40.8,29.99,West,279,7.0,8.0,94,0.00,,---,0.10,VWS V14.01,2013-04-16 10:27:00,
2013-04-16 06:32:00,42.4,40.8,29.99,WNW,288,6.0,8.0,94,0.00,,---,0.10,VWS V14.01,2013-04-16 10:32:00,
2013-04-16 06:37:00,42.4,40.8,29.99,NW,304,5.0,8.0,94,0.00,,---,0.10,VWS V14.01,2013-04-16 10:37:00,
2013-04-16 06:42:00,42.4,40.8,29.99,WNW,286,6.0,7.0,94,0.00,,---,0.10,VWS V14.01,2013-04-16 10:42:00,
2013-04-16 06:47:00,42.4,40.8,29.99,WNW,302,4.0,7.0,94,0.00,,---,0.10,VWS V14.01,2013-04-16 10:47:00,
2013-04-16 06:52:00,42.4,40.8,29.99,WNW,294,4.0,8.0,94,0.00,,---,0.10,VWS V14.01,2013-04-16 10:52:00,
2013-04-16 06:57:00,42.4,40.8,30.00,WNW,299,5.0,7.0,94,0.00,,---,0.10,VWS V14.01,2013-04-16 10:57:00,
2013-04-16 07:02:00,42.4,40.8,30.00,WNW,300,6.0,8.0,94,0.00,,---,0.10,VWS V14.01,2013-04-16 11:02:00,
2013-04-16 07:07:00,42.4,40.8,30.01,WNW,288,6.0,7.0,94,0.00,,---,0.10,VWS V14.01,2013-04-16 11:07:00,
2013-04-16 07:12:00,42.4,40.8,30.01,WNW,284,6.0,6.0,94,0.00,,---,0.10,VWS V14.01,2013-04-16 11:12:00,
2013-04-16 07:17:00,42.4,40.5,30.02,WNW,284,4.0,6.0,93,0.00,,---,0.10,VWS V14.01,2013-04-16 11:17:00,
2013-04-16 07:22:00,42.4,40.5,30.01,WNW,294,5.0,6.0,93,0.00,,---,0.10,VWS V14.01,2013-04-16 11:22:00,
2013-04-16 07:27:00,42.3,40.4,30.02,NW,304,4.0,6.0,93,0.00,,---,0.10,VWS V14.01,2013-04-16 11:27:00,
2013-04-16 07:32:00,42.3,40.4,30.02,NW,304,4.0,6.0,93,0.00,,---,0.10,VWS V14.01,2013-04-16 11:32:00,
2013-04-16 07:37:00,42.4,40.5,30.02,WNW,283,6.0,6.0,93,0.00,,---,0.10,VWS V14.01,2013-04-16 11:37:00,
2013-04-16 07:42:00,42.3,40.4,30.02,WNW,285,5.0,8.0,93,0.00,,---,0.10,VWS V14.01,2013-04-16 11:42:00,
2013-04-16 07:47:00,42.3,40.4,30.03,West,277,5.0,7.0,93,0.00,,---,0.10,VWS V14.01,2013-04-16 11:47:00,
2013-04-16 07:52:00,42.3,40.2,30.03,West,271,4.0,8.0,92,0.00,,---,0.10,VWS V14.01,2013-04-16 11:52:00,
2013-04-16 07:57:00,42.3,40.2,30.04,West,266,6.0,8.0,92,0.00,,---,0.10,VWS V14.01,2013-04-16 11:57:00,
2013-04-16 08:02:00,42.3,40.2,30.04,West,277,4.0,8.0,92,0.00,,---,0.10,VWS V14.01,2013-04-16 12:02:00,
2013-04-16 08:07:00,42.3,39.9,30.03,WNW,282,5.0,6.0,91,0.00,,---,0.10,VWS V14.01,2013-04-16 12:07:00,
2013-04-16 08:12:00,42.3,39.9,30.03,West,279,6.0,6.0,91,0.00,,---,0.10,VWS V14.01,2013-04-16 12:12:00,
2013-04-16 08:17:00,42.3,39.6,30.04,WNW,292,4.0,6.0,90,0.00,,---,0.10,VWS V14.01,2013-04-16 12:17:00,
2013-04-16 08:22:00,42.3,39.6,30.04,WNW,285,4.0,6.0,90,0.00,,---,0.10,VWS V14.01,2013-04-16 12:22:00,
2013-04-16 08:27:00,42.3,39.3,30.04,WNW,285,6.0,6.0,89,0.00,,---,0.10,VWS V14.01,2013-04-16 12:27:00,
2013-04-16 08:32:00,42.2,39.2,30.04,West,279,5.0,7.0,89,0.00,,---,0.10,VWS V14.01,2013-04-16 12:32:00,
2013-04-16 08:37:00,42.2,38.9,30.05,West,280,5.0,6.0,88,0.00,,---,0.10,VWS V14.01,2013-04-16 12:37:00,
2013-04-16 08:42:00,42.1,38.8,30.05,West,280,5.0,7.0,88,0.00,,---,0.10,VWS V14.01,2013-04-16 12:42:00,
2013-04-16 08:47:00,42.2,38.9,30.05,WNW,292,6.0,8.0,88,0.00,,---,0.10,VWS V14.01,2013-04-16 12:47:00,
2013-04-16 08:52:00,42.3,39.0,30.06,West,281,7.0,7.0,88,0.00,,---,0.10,VWS V14.01,2013-04-16 12:52:00,
2013-04-16 08:57:00,42.3,38.7,30.06,WNW,293,6.0,8.0,87,0.00,,---,0.10,VWS V14.01,2013-04-16 12:57:00,
2013-04-16 09:02:00,42.3,38.4,30.06,West,274,8.0,10.0,86,0.00,,---,0.10,VWS V14.01,2013-04-16 13:02:00,
2013-04-16 09:07:00,42.2,38.3,30.06,North,360,5.0,8.0,86,0.00,,---,0.10,VWS V14.01,2013-04-16 13:07:00,
2013-04-16 09:12:00,42.4,38.8,30.06,WNW,286,7.0,9.0,87,0.00,,---,0.10,VWS V14.01,2013-04-16 13:12:00,
2013-04-16 09:17:00,42.5,38.3,30.06,WNW,284,6.0,11.0,85,0.00,,---,0.10,VWS V14.01,2013-04-16 13:17:00,
2013-04-16 09:22:00,42.7,38.5,30.06,WNW,297,8.0,9.0,85,0.00,,---,0.10,VWS V14.01,2013-04-16 13:22:00,
2013-04-16 09:27:00,42.9,38.7,30.06,WNW,289,5.0,10.0,85,0.00,,---,0.10,VWS V14.01,2013-04-16 13:27:00,
2013-04-16 09:32:00,43.2,39.0,30.06,WNW,285,6.0,10.0,85,0.00,,---,0.10,VWS V14.01,2013-04-16 13:32:00,
2013-04-16 09:37:00,43.4,38.6,30.06,NW,317,8.0,10.0,83,0.00,,---,0.10,VWS V14.01,2013-04-16 13:37:00,
2013-04-16 09:42:00,43.5,38.4,30.06,WNW,300,8.0,11.0,82,0.00,,---,0.10,VWS V14.01,2013-04-16 13:42:00,
2013-04-16 09:47:00,43.7,38.9,30.07,NW,313,9.0,10.0,83,0.00,,---,0.10,VWS V14.01,2013-04-16 13:47:00,
2013-04-16 09:52:00,44.0,38.5,30.07,WNW,292,7.0,11.0,81,0.00,,---,0.10,VWS V14.01,2013-04-16 13:52:00,
2013-04-16 09:57:00,44.2,38.4,30.08,WNW,302,7.0,11.0,80,0.00,,---,0.10,VWS V14.01,2013-04-16 13:57:00,
2013-04-16 10:02:00,44.3,38.5,30.08,WNW,286,9.0,10.0,80,0.00,,---,0.10,VWS V14.01,2013-04-16 14:02:00,
2013-04-16 10:07:00,44.4,38.3,30.08,WNW,293,10.0,12.0,79,0.00,,---,0.10,VWS V14.01,2013-04-16 14:07:00,
2013-04-16 10:12:00,44.5,38.4,30.08,WNW,294,8.0,12.0,79,0.00,,---,0.10,VWS V14.01,2013-04-16 14:12:00,
2013-04-16 10:17:00,44.7,38.3,30.08,West,266,11.0,11.0,78,0.00,,---,0.10,VWS V14.01,2013-04-16 14:17:00,
2013-04-16 10:22:00,44.8,38.4,30.08,WNW,288,11.0,12.0,78,0.00,,---,0.10,VWS V14.01,2013-04-16 14:22:00,
2013-04-16 10:27:00,45.0,38.9,30.09,WNW,302,6.0,13.0,79,0.00,,---,0.10,VWS V14.01,2013-04-16 14:27:00,
2013-04-16 10:32:00,45.3,38.5,30.09,NW,306,11.0,13.0,77,0.00,,---,0.10,VWS V14.01,2013-04-16 14:32:00,
2013-04-16 10:37:00,45.3,37.9,30.09,WNW,291,12.0,12.0,75,0.00,,---,0.10,VWS V14.01,2013-04-16 14:37:00,
2013-04-16 10:42:00,45.4,38.6,30.10,WNW,302,10.0,13.0,77,0.00,,---,0.10,VWS V14.01,2013-04-16 14:42:00,
2013-04-16 10:47:00,45.7,39.2,30.10,West,271,9.0,12.0,78,0.00,,---,0.10,VWS V14.01,2013-04-16 14:47:00,
2013-04-16 10:52:00,45.8,38.7,30.10,WNW,302,11.0,14.0,76,0.00,,---,0.10,VWS V14.01,2013-04-16 14:52:00,
2013-04-16 10:57:00,45.9,38.4,30.10,WNW,286,10.0,15.0,75,0.00,,---,0.10,VWS V14.01,2013-04-16 14:57:00,
2013-04-16 11:02:00,46.0,38.9,30.10,NW,304,12.0,13.0,76,0.00,,---,0.10,VWS V14.01,2013-04-16 15:02:00,
2013-04-16 11:07:00,46.1,37.9,30.10,West,276,13.0,15.0,73,0.00,,---,0.10,VWS V14.01,2013-04-16 15:07:00,
2013-04-16 11:12:00,46.0,37.8,30.10,West,270,10.0,15.0,73,0.00,,---,0.10,VWS V14.01,2013-04-16 15:12:00,
2013-04-16 11:17:00,46.1,39.0,30.10,West,275,10.0,13.0,76,0.00,,---,0.10,VWS V14.01,2013-04-16 15:17:00,
2013-04-16 11:23:00,46.3,37.8,30.10,West,281,7.0,14.0,72,0.00,,---,0.10,VWS V14.01,2013-04-16 15:23:00,
2013-04-16 11:28:00,46.6,39.1,30.10,NW,308,7.0,13.0,75,0.00,,---,0.10,VWS V14.01,2013-04-16 15:28:00,
2013-04-16 11:33:00,46.8,38.6,30.10,WNW,300,11.0,14.0,73,0.00,,---,0.10,VWS V14.01,2013-04-16 15:33:00,
2013-04-16 11:38:00,46.8,38.3,30.10,WNW,297,11.0,11.0,72,0.00,,---,0.10,VWS V14.01,2013-04-16 15:38:00,
2013-04-16 11:43:00,46.9,39.4,30.10,West,273,4.0,12.0,75,0.00,,---,0.10,VWS V14.01,2013-04-16 15:43:00,
2013-04-16 11:48:00,47.0,38.8,30.11,West,271,11.0,14.0,73,0.00,,---,0.10,VWS V14.01,2013-04-16 15:48:00,
2013-04-16 11:53:00,47.2,39.3,30.11,West,265,11.0,15.0,74,0.00,,---,0.10,VWS V14.01,2013-04-16 15:53:00,
2013-04-16 11:58:00,47.3,39.1,30.11,West,269,15.0,15.0,73,0.00,,---,0.10,VWS V14.01,2013-04-16 15:58:00,
2013-04-16 12:03:00,47.2,38.3,30.11,WSW,252,12.0,14.0,71,0.00,,---,0.10,VWS V14.01,2013-04-16 16:03:00,
2013-04-16 12:08:00,47.2,38.7,30.11,WNW,292,11.0,14.0,72,0.00,,---,0.10,VWS V14.01,2013-04-16 16:08:00,
2013-04-16 12:13:00,47.4,38.5,30.11,West,259,9.0,16.0,71,0.00,,---,0.10,VWS V14.01,2013-04-16 16:13:00,
2013-04-16 12:18:00,47.5,38.9,30.11,WNW,299,11.0,12.0,72,0.00,,---,0.10,VWS V14.01,2013-04-16 16:18:00,
2013-04-16 12:23:00,47.8,38.9,30.10,West,277,12.0,16.0,71,0.00,,---,0.10,VWS V14.01,2013-04-16 16:23:00,
2013-04-16 12:28:00,48.1,39.2,30.10,West,270,9.0,15.0,71,0.00,,---,0.10,VWS V14.01,2013-04-16 16:28:00,
2013-04-16 12:33:00,48.1,38.0,30.10,WNW,300,10.0,14.0,68,0.00,,---,0.10,VWS V14.01,2013-04-16 16:33:00,
2013-04-16 12:38:00,48.3,39.3,30.10,WNW,289,10.0,14.0,71,0.00,,---,0.10,VWS V14.01,2013-04-16 16:38:00,
2013-04-16 12:43:00,48.3,37.5,30.10,West,272,10.0,14.0,66,0.00,,---,0.10,VWS V14.01,2013-04-16 16:43:00,
2013-04-16 12:48:00,48.2,39.6,30.11,WNW,290,12.0,13.0,72,0.00,,---,0.10,VWS V14.01,2013-04-16 16:48:00,
2013-04-16 12:53:00,48.2,38.2,30.11,WNW,293,8.0,14.0,68,0.00,,---,0.10,VWS V14.01,2013-04-16 16:53:00,
2013-04-16 12:58:00,48.2,38.2,30.11,NW,312,8.0,16.0,68,0.00,,---,0.10,VWS V14.01,2013-04-16 16:58:00,
2013-04-16 13:03:00,48.3,39.3,30.12,WNW,286,11.0,18.0,71,0.00,,---,0.10,VWS V14.01,2013-04-16 17:03:00,
2013-04-16 13:08:00,48.3,39.3,30.12,West,280,12.0,17.0,71,0.00,,---,0.10,VWS V14.01,2013-04-16 17:08:00,
2013-04-16 13:13:00,48.5,38.8,30.12,NW,316,10.0,15.0,69,0.00,,---,0.10,VWS V14.01,2013-04-16 17:13:00,
2013-04-16 13:18:00,48.6,39.3,30.12,WNW,288,14.0,17.0,70,0.00,,---,0.10,VWS V14.01,2013-04-16 17:18:00,
2013-04-16 13:23:00,48.5,39.2,30.13,WSW,257,10.0,17.0,70,0.00,,---,0.10,VWS V14.01,2013-04-16 17:23:00,
2013-04-16 13:28:00,48.5,37.7,30.13,West,279,10.0,17.0,66,0.00,,---,0.10,VWS V14.01,2013-04-16 17:28:00,
2013-04-16 13:33:00,48.5,37.7,30.13,WNW,290,8.0,16.0,66,0.00,,---,0.10,VWS V14.01,2013-04-16 17:33:00,
2013-04-16 13:38:00,48.7,38.2,30.14,WSW,257,10.0,16.0,67,0.00,,---,0.10,VWS V14.01,2013-04-16 17:38:00,
2013-04-16 13:43:00,48.6,36.6,30.14,West,272,11.0,17.0,63,0.00,,---,0.10,VWS V14.01,2013-04-16 17:43:00,
2013-04-16 13:48:00,48.5,38.1,30.15,West,273,10.0,16.0,67,0.00,,---,0.10,VWS V14.01,2013-04-16 17:48:00,
2013-04-16 13:53:00,48.6,37.4,30.15,West,269,10.0,19.0,65,0.00,,---,0.10,VWS V14.01,2013-04-16 17:53:00,
2013-04-16 13:58:00,48.4,36.8,30.14,West,274,15.0,17.0,64,0.00,,---,0.10,VWS V14.01,2013-04-16 17:58:00,
2013-04-16 14:03:00,48.4,36.8,30.14,WNW,300,11.0,16.0,64,0.00,,---,0.10,VWS V14.01,2013-04-16 18:03:00,
2013-04-16 14:08:00,48.4,38.0,30.14,WNW,283,12.0,16.0,67,0.00,,---,0.10,VWS V14.01,2013-04-16 18:08:00,
2013-04-16 14:13:00,48.7,37.9,30.14,WNW,299,10.0,14.0,66,0.00,,---,0.10,VWS V14.01,2013-04-16 18:13:00,
2013-04-16 14:18:00,49.0,37.4,30.15,West,278,9.0,14.0,64,0.00,,---,0.10,VWS V14.01,2013-04-16 18:18:00,
2013-04-16 14:23:00,49.1,37.1,30.15,WNW,290,12.0,18.0,63,0.00,,---,0.10,VWS V14.01,2013-04-16 18:23:00,
2013-04-16 14:28:00,49.0,39.3,30.15,WNW,288,14.0,21.0,69,0.00,,---,0.10,VWS V14.01,2013-04-16 18:28:00,
2013-04-16 14:33:00,49.1,36.2,30.15,WNW,285,10.0,16.0,61,0.00,,---,0.10,VWS V14.01,2013-04-16 18:33:00,
2013-04-16 14:38:00,49.0,36.2,30.16,West,259,12.0,19.0,61,0.00,,---,0.10,VWS V14.01,2013-04-16 18:38:00,
2013-04-16 14:43:00,49.0,36.6,30.16,West,263,11.0,15.0,62,0.00,,---,0.10,VWS V14.01,2013-04-16 18:43:00,
2013-04-16 14:48:00,49.0,35.3,30.16,West,259,13.0,16.0,59,0.00,,---,0.10,VWS V14.01,2013-04-16 18:48:00,
2013-04-16 14:53:00,48.9,35.6,30.16,West,267,9.0,15.0,60,0.00,,---,0.10,VWS V14.01,2013-04-16 18:53:00,
2013-04-16 14:58:00,49.2,36.8,30.16,WSW,258,8.0,14.0,62,0.00,,---,0.10,VWS V14.01,2013-04-16 18:58:00,
2013-04-16 15:03:00,49.2,35.9,30.17,WNW,289,11.0,15.0,60,0.00,,---,0.10,VWS V14.01,2013-04-16 19:03:00,
2013-04-16 15:08:00,49.2,36.8,30.17,NW,306,12.0,17.0,62,0.00,,---,0.10,VWS V14.01,2013-04-16 19:08:00,
2013-04-16 15:13:00,49.1,36.7,30.17,WNW,284,10.0,15.0,62,0.00,,---,0.10,VWS V14.01,2013-04-16 19:13:00,
2013-04-16 15:18:00,49.2,37.2,30.16,NW,314,11.0,15.0,63,0.00,,---,0.10,VWS V14.01,2013-04-16 19:18:00,
2013-04-16 15:23:00,49.4,34.8,30.16,West,261,16.0,19.0,57,0.00,,---,0.10,VWS V14.01,2013-04-16 19:23:00,
2013-04-16 15:28:00,49.3,35.6,30.16,West,265,14.0,18.0,59,0.00,,---,0.10,VWS V14.01,2013-04-16 19:28:00,
2013-04-16 15:33:00,49.2,35.5,30.17,WNW,285,10.0,10.0,59,0.00,,---,0.10,VWS V14.01,2013-04-16 19:33:00,
2013-04-16 15:38:00,49.3,35.2,30.16,West,279,13.0,13.0,58,0.00,,---,0.10,VWS V14.01,2013-04-16 19:38:00,
2013-04-16 15:43:00,49.2,35.1,30.17,West,277,10.0,10.0,58,0.00,,---,0.10,VWS V14.01,2013-04-16 19:43:00,
2013-04-16 15:48:00,49.3,34.3,30.17,WNW,290,12.0,12.0,56,0.00,,---,0.10,VWS V14.01,2013-04-16 19:48:00,
2013-04-16 15:53:00,49.4,36.9,30.17,WNW,288,8.0,10.0,62,0.00,,---,0.10,VWS V14.01,2013-04-16 19:53:00,
2013-04-16 15:58:00,49.3,34.3,30.17,West,277,13.0,14.0,56,0.00,,---,0.10,VWS V14.01,2013-04-16 19:58:00,
2013-04-16 16:03:00,49.2,36.8,30.17,WNW,284,9.0,10.0,62,0.00,,---,0.10,VWS V14.01,2013-04-16 20:03:00,
2013-04-16 16:08:00,49.1,36.2,30.17,WNW,286,7.0,10.0,61,0.00,,---,0.10,VWS V14.01,2013-04-16 20:08:00,
2013-04-16 16:13:00,49.0,35.7,30.17,West,268,13.0,13.0,60,0.00,,---,0.10,VWS V14.01,2013-04-16 20:13:00,
2013-04-16 16:18:00,48.8,35.5,30.17,West,262,9.0,11.0,60,0.00,,---,0.10,VWS V14.01,2013-04-16 20:18:00,
2013-04-16 16:23:00,49.0,37.0,30.17,West,275,10.0,12.0,63,0.00,,---,0.10,VWS V14.01,2013-04-16 20:23:00,
2013-04-16 16:28:00,49.1,37.1,30.17,WNW,296,12.0,13.0,63,0.00,,---,0.10,VWS V14.01,2013-04-16 20:28:00,
2013-04-16 16:33:00,49.0,38.5,30.17,WNW,286,12.0,12.0,67,0.00,,---,0.10,VWS V14.01,2013-04-16 20:33:00,
2013-04-16 16:38:00,49.1,36.2,30.17,West,274,8.0,11.0,61,0.00,,---,0.10,VWS V14.01,2013-04-16 20:38:00,
2013-04-16 16:43:00,49.2,36.3,30.17,NW,308,10.0,10.0,61,0.00,,---,0.10,VWS V14.01,2013-04-16 20:43:00,
2013-04-16 16:48:00,49.1,36.2,30.17,WNW,299,14.0,14.0,61,0.00,,---,0.10,VWS V14.01,2013-04-16 20:48:00,
2013-04-16 16:53:00,48.9,36.9,30.17,WNW,302,10.0,11.0,63,0.00,,---,0.10,VWS V14.01,2013-04-16 20:53:00,
2013-04-16 16:58:00,48.7,37.9,30.17,NW,321,13.0,13.0,66,0.00,,---,0.10,VWS V14.01,2013-04-16 20:58:00,
2013-04-16 17:03:00,48.5,36.1,30.17,WNW,298,9.0,10.0,62,0.00,,---,0.10,VWS V14.01,2013-04-16 21:03:00,
2013-04-16 17:08:00,48.2,35.8,30.17,WNW,288,10.0,10.0,62,0.00,,---,0.10,VWS V14.01,2013-04-16 21:08:00,
2013-04-16 17:13:00,48.2,37.0,30.17,West,274,8.0,14.0,65,0.00,,---,0.10,VWS V14.01,2013-04-16 21:13:00,
2013-04-16 17:18:00,48.5,38.1,30.18,WNW,295,13.0,15.0,67,0.00,,---,0.10,VWS V14.01,2013-04-16 21:18:00,
2013-04-16 17:23:00,48.5,38.1,30.18,West,270,10.0,14.0,67,0.00,,---,0.10,VWS V14.01,2013-04-16 21:23:00,
2013-04-16 17:28:00,48.3,36.7,30.18,NNW,338,10.0,15.0,64,0.00,,---,0.10,VWS V14.01,2013-04-16 21:28:00,
2013-04-16 17:33:00,48.1,36.9,30.18,West,279,10.0,10.0,65,0.00,,---,0.10,VWS V14.01,2013-04-16 21:33:00,
2013-04-16 17:38:00,48.2,38.2,30.17,NW,317,12.0,14.0,68,0.00,,---,0.10,VWS V14.01,2013-04-16 21:38:00,
2013-04-16 17:43:00,48.3,37.1,30.18,West,280,12.0,12.0,65,0.00,,---,0.10,VWS V14.01,2013-04-16 21:43:00,
2013-04-16 17:48:00,48.0,36.8,30.18,WNW,287,10.0,10.0,65,0.00,,---,0.10,VWS V14.01,2013-04-16 21:48:00,
2013-04-16 17:53:00,47.9,37.1,30.19,WNW,292,10.0,11.0,66,0.00,,---,0.10,VWS V14.01,2013-04-16 21:53:00,
2013-04-16 17:58:00,47.7,36.9,30.19,WNW,284,10.0,14.0,66,0.00,,---,0.10,VWS V14.01,2013-04-16 21:58:00,
2013-04-16 18:03:00,47.7,36.9,30.20,West,273,8.0,14.0,66,0.00,,---,0.10,VWS V14.01,2013-04-16 22:03:00,
2013-04-16 18:08:00,47.8,37.0,30.19,NW,310,10.0,15.0,66,0.00,,---,0.10,VWS V14.01,2013-04-16 22:08:00,
2013-04-16 18:13:00,47.8,37.0,30.19,WNW,284,11.0,13.0,66,0.00,,---,0.10,VWS V14.01,2013-04-16 22:13:00,
2013-04-16 18:18:00,47.6,36.8,30.19,West,279,10.0,12.0,66,0.00,,---,0.10,VWS V14.01,2013-04-16 22:18:00,
2013-04-16 18:23:00,47.4,36.6,30.20,WNW,296,6.0,12.0,66,0.00,,---,0.10,VWS V14.01,2013-04-16 22:23:00,
2013-04-16 18:28:00,47.3,37.3,30.20,WNW,286,8.0,11.0,68,0.00,,---,0.10,VWS V14.01,2013-04-16 22:28:00,
2013-04-16 18:33:00,47.2,37.6,30.20,WNW,294,7.0,9.0,69,0.00,,---,0.10,VWS V14.01,2013-04-16 22:33:00,
2013-04-16 18:38:00,47.2,37.6,30.20,WNW,284,6.0,9.0,69,0.00,,---,0.10,VWS V14.01,2013-04-16 22:38:00,
2013-04-16 18:43:00,47.0,37.4,30.20,WNW,292,7.0,8.0,69,0.00,,---,0.10,VWS V14.01,2013-04-16 22:43:00,
2013-04-16 18:49:00,46.9,36.9,30.20,WNW,284,5.0,6.0,68,0.00,,---,0.10,VWS V14.01,2013-04-16 22:49:00,
2013-04-16 18:54:00,46.8,37.2,30.21,West,273,6.0,6.0,69,0.00,,---,0.10,VWS V14.01,2013-04-16 22:54:00,
2013-04-16 18:59:00,46.8,37.2,30.20,West,273,3.0,4.0,69,0.00,,---,0.10,VWS V14.01,2013-04-16 22:59:00,
2013-04-16 19:04:00,46.8,37.2,30.20,West,279,6.0,6.0,69,0.00,,---,0.10,VWS V14.01,2013-04-16 23:04:00,
2013-04-16 19:09:00,46.7,37.1,30.20,NW,311,5.0,6.0,69,0.00,,---,0.10,VWS V14.01,2013-04-16 23:09:00,
2013-04-16 19:14:00,46.7,36.7,30.20,WNW,294,6.0,7.0,68,0.00,,---,0.10,VWS V14.01,2013-04-16 23:14:00,
2013-04-16 19:19:00,46.7,37.1,30.20,WNW,294,5.0,6.0,69,0.00,,---,0.10,VWS V14.01,2013-04-16 23:19:00,
2013-04-16 19:24:00,46.7,37.1,30.20,NW,311,4.0,5.0,69,0.00,,---,0.10,VWS V14.01,2013-04-16 23:24:00,
2013-04-16 19:29:00,46.6,36.6,30.20,WNW,291,3.0,5.0,68,0.00,,---,0.10,VWS V14.01,2013-04-16 23:29:00,
2013-04-16 19:34:00,46.6,37.0,30.20,West,276,4.0,4.0,69,0.00,,---,0.10,VWS V14.01,2013-04-16 23:34:00,
2013-04-16 19:39:00,46.6,37.3,30.20,West,276,3.0,3.0,70,0.00,,---,0.10,VWS V14.01,2013-04-16 23:39:00,
2013-04-16 19:44:00,46.6,38.1,30.21,WNW,295,4.0,5.0,72,0.00,,---,0.10,VWS V14.01,2013-04-16 23:44:00,
2013-04-16 19:49:00,46.5,37.6,30.21,West,278,4.0,4.0,71,0.00,,---,0.10,VWS V14.01,2013-04-16 23:49:00,
2013-04-16 19:54:00,46.4,37.5,30.21,West,262,4.0,4.0,71,0.00,,---,0.10,VWS V14.01,2013-04-16 23:54:00,
2013-04-16 19:59:00,46.4,37.5,30.21,WSW,253,3.0,4.0,71,0.00,,---,0.10,VWS V14.01,2013-04-16 23:59:00,
2013-04-16 20:04:00,46.4,37.9,30.22,WSW,250,5.0,7.0,72,0.00,,---,0.10,VWS V14.01,2013-04-17 00:04:00,
2013-04-16 20:09:00,46.3,37.8,30.21,WSW,252,4.0,4.0,72,0.00,,---,0.10,VWS V14.01,2013-04-17 00:09:00,
2013-04-16 20:14:00,46.3,37.8,30.21,West,272,4.0,5.0,72,0.00,,---,0.10,VWS V14.01,2013-04-17 00:14:00,
2013-04-16 20:19:00,46.2,38.4,30.21,WNW,294,3.0,5.0,74,0.00,,---,0.10,VWS V14.01,2013-04-17 00:19:00,
2013-04-16 20:24:00,46.1,38.3,30.21,West,259,4.0,5.0,74,0.00,,---,0.10,VWS V14.01,2013-04-17 00:24:00,
2013-04-16 20:29:00,46.0,37.8,30.20,West,259,0.0,1.0,73,0.00,,---,0.10,VWS V14.01,2013-04-17 00:29:00,
2013-04-16 20:34:00,46.0,38.2,30.22,West,259,5.0,6.0,74,0.00,,---,0.10,VWS V14.01,2013-04-17 00:34:00,
2013-04-16 20:39:00,45.9,38.4,30.22,West,259,4.0,4.0,75,0.00,,---,0.10,VWS V14.01,2013-04-17 00:39:00,
2013-04-16 20:44:00,45.8,38.7,30.23,West,259,4.0,5.0,76,0.00,,---,0.10,VWS V14.01,2013-04-17 00:44:00,
2013-04-16 20:49:00,45.7,38.6,30.22,West,259,2.0,3.0,76,0.00,,---,0.10,VWS V14.01,2013-04-17 00:49:00,
2013-04-16 20:54:00,45.6,38.5,30.22,West,259,4.0,5.0,76,0.00,,---,0.10,VWS V14.01,2013-04-17 00:54:00,
2013-04-16 20:59:00,45.5,38.0,30.22,West,259,4.0,6.0,75,0.00,,---,0.10,VWS V14.01,2013-04-17 00:59:00,
2013-04-16 21:04:00,45.4,38.3,30.23,WNW,298,5.0,5.0,76,0.00,,---,0.10,VWS V14.01,2013-04-17 01:04:00,
2013-04-16 21:09:00,45.2,37.8,30.22,NW,308,4.0,5.0,75,0.00,,---,0.10,VWS V14.01,2013-04-17 01:09:00,
2013-04-16 21:14:00,45.2,37.8,30.23,NW,313,5.0,6.0,75,0.00,,---,0.10,VWS V14.01,2013-04-17 01:14:00,
2013-04-16 21:19:00,45.1,37.7,30.23,NW,311,5.0,6.0,75,0.00,,---,0.10,VWS V14.01,2013-04-17 01:19:00,
2013-04-16 21:24:00,45.0,37.2,30.23,NW,311,4.0,6.0,74,0.00,,---,0.10,VWS V14.01,2013-04-17 01:24:00,
2013-04-16 21:29:00,44.9,37.1,30.24,NW,305,4.0,5.0,74,0.00,,---,0.10,VWS V14.01,2013-04-17 01:29:00,
2013-04-16 21:35:00,44.9,37.8,30.24,WNW,299,4.0,5.0,76,0.00,,---,0.10,VWS V14.01,2013-04-17 01:35:00,
2013-04-16 21:40:00,44.7,37.9,30.24,WNW,299,4.0,5.0,77,0.00,,---,0.10,VWS V14.01,2013-04-17 01:40:00,
2013-04-16 21:45:00,44.4,38.3,30.24,WNW,299,5.0,5.0,79,0.00,,---,0.10,VWS V14.01,2013-04-17 01:45:00,
2013-04-16 21:50:00,44.2,37.5,30.24,WNW,298,4.0,4.0,77,0.00,,---,0.10,VWS V14.01,2013-04-17 01:50:00,
2013-04-16 21:55:00,44.1,37.4,30.24,WNW,298,5.0,6.0,77,0.00,,---,0.10,VWS V14.01,2013-04-17 01:55:00,
2013-04-16 22:00:00,44.0,37.6,30.24,WNW,299,4.0,6.0,78,0.00,,---,0.10,VWS V14.01,2013-04-17 02:00:00,
2013-04-16 22:05:00,44.0,37.6,30.25,WNW,299,3.0,4.0,78,0.00,,---,0.10,VWS V14.01,2013-04-17 02:05:00,
2013-04-16 22:10:00,43.9,37.5,30.25,WNW,299,3.0,4.0,78,0.00,,---,0.10,VWS V14.01,2013-04-17 02:10:00,
2013-04-16 22:15:00,43.8,37.1,30.25,WNW,299,4.0,5.0,77,0.00,,---,0.10,VWS V14.01,2013-04-17 02:15:00,
2013-04-16 22:20:00,43.8,37.1,30.25,WNW,299,2.0,3.0,77,0.00,,---,0.10,VWS V14.01,2013-04-17 02:20:00,
2013-04-16 22:25:00,43.8,37.4,30.25,WNW,299,3.0,4.0,78,0.00,,---,0.10,VWS V14.01,2013-04-17 02:25:00,
2013-04-16 22:30:00,43.7,37.6,30.24,WNW,299,4.0,5.0,79,0.00,,---,0.10,VWS V14.01,2013-04-17 02:30:00,
2013-04-16 22:35:00,43.6,37.5,30.24,NNW,338,4.0,6.0,79,0.00,,---,0.10,VWS V14.01,2013-04-17 02:35:00,
2013-04-16 22:40:00,43.4,37.3,30.25,NW,326,3.0,4.0,79,0.00,,---,0.10,VWS V14.01,2013-04-17 02:40:00,
2013-04-16 22:45:00,43.3,37.2,30.25,NW,326,3.0,4.0,79,0.00,,---,0.10,VWS V14.01,2013-04-17 02:45:00,
2013-04-16 22:50:00,43.2,37.1,30.25,NW,326,1.0,2.0,79,0.00,,---,0.10,VWS V14.01,2013-04-17 02:50:00,
2013-04-16 22:55:00,43.1,37.4,30.25,NW,326,2.0,3.0,80,0.00,,---,0.10,VWS V14.01,2013-04-17 02:55:00,
2013-04-16 23:00:00,43.0,37.3,30.25,NW,326,2.0,2.0,80,0.00,,---,0.10,VWS V14.01,2013-04-17 03:00:00,
2013-04-16 23:05:00,42.8,37.4,30.25,NW,326,4.0,4.0,81,0.00,,---,0.10,VWS V14.01,2013-04-17 03:05:00,
2013-04-16 23:10:00,42.6,37.2,30.25,NW,326,2.0,3.0,81,0.00,,---,0.10,VWS V14.01,2013-04-17 03:10:00,
2013-04-16 23:15:00,42.4,37.0,30.24,NW,326,1.0,3.0,81,0.00,,---,0.10,VWS V14.01,2013-04-17 03:15:00,
2013-04-16 23:20:00,42.2,37.1,30.25,NW,326,0.0,0.0,82,0.00,,---,0.10,VWS V14.01,2013-04-17 03:20:00,
2013-04-16 23:25:00,42.1,37.3,30.25,NW,326,3.0,3.0,83,0.00,,---,0.10,VWS V14.01,2013-04-17 03:25:00,
2013-04-16 23:30:00,42.1,37.6,30.25,NW,326,1.0,1.0,84,0.00,,---,0.10,VWS V14.01,2013-04-17 03:30:00,
2013-04-16 23:35:00,42.0,37.5,30.25,NW,326,0.0,0.0,84,0.00,,---,0.10,VWS V14.01,2013-04-17 03:35:00,
2013-04-16 23:40:00,42.0,37.5,30.25,NW,326,0.0,0.0,84,0.00,,---,0.10,VWS V14.01,2013-04-17 03:40:00,
2013-04-16 23:45:00,42.0,37.5,30.24,NW,326,2.0,2.0,84,0.00,,---,0.10,VWS V14.01,2013-04-17 03:45:00,
2013-04-16 23:50:00,41.9,37.1,30.24,NW,326,0.0,1.0,83,0.00,,---,0.10,VWS V14.01,2013-04-17 03:50:00,
2013-04-16 23:55:00,41.8,37.3,30.24,NW,326,0.0,0.0,84,0.00,,---,0.10,VWS V14.01,2013-04-17 03:55:00,